| time (UTC) | temp F | wind direction | speed knots | gust knots | rain 1hr in | rain 24hr in | rain mn in | humidity % | barometer mb |
| 20260506231433 | 96 | 85 | 7.0 | 13.0 | 0.00 | 0.00 | 0.00 | 62 | 1002.9 |
| 20260506225922 | 97 | 74 | 7.0 | 13.9 | 0.00 | 0.00 | 0.00 | 60 | 1002.9 |
| 20260506222928 | 101 | 73 | 6.1 | 11.3 | 0.00 | 0.00 | 0.00 | 55 | 1002.5 |
| 20260506215932 | 103 | 104 | 3.5 | 14.8 | 0.00 | 0.00 | 0.00 | 50 | 1002.5 |
| 20260506212926 | 105 | 93 | 0.9 | 7.8 | 0.00 | 0.00 | 0.00 | 45 | 1002.7 |
| 20260506205928 | 105 | 216 | 0.9 | 4.3 | 0.00 | 0.00 | 0.00 | 43 | 1002.8 |
| 20260506202940 | 104 | 76 | 1.7 | 6.1 | 0.00 | 0.00 | 0.00 | 45 | 1003.2 |
| 20260506195924 | 103 | 262 | 2.6 | 6.1 | 0.00 | 0.00 | 0.00 | 49 | 1003.7 |
| 20260506192930 | 101 | 31 | 2.6 | 8.7 | 0.00 | 0.00 | 0.00 | 51 | 1004.3 |
| 20260506191418 | 101 | 73 | 4.3 | 7.8 | 0.00 | 0.00 | 0.00 | 53 | 1004.6 |
| 20260506185912 | 99 | 251 | 2.6 | 7.0 | 0.00 | 0.00 | 0.00 | 56 | 1004.9 |
| 20260506182935 | 98 | 68 | 6.1 | 8.7 | 0.00 | 0.00 | 0.00 | 59 | 1005.6 |
| 20260506175933 | 96 | 10 | 1.7 | 8.7 | 0.00 | 0.00 | 0.00 | 62 | 1005.9 |
| 20260506174429 | 95 | 274 | 1.7 | 6.1 | 0.00 | 0.00 | 0.00 | 64 | 1006.1 |
| 20260506165930 | 92 | 12 | 1.7 | 7.0 | 0.00 | 0.00 | 0.00 | 70 | 1006.5 |
| 20260506164415 | 91 | 347 | 0.0 | 7.0 | 0.00 | 0.00 | 0.00 | 71 | 1006.7 |
| 20260506155932 | 89 | 239 | 0.9 | 4.3 | 0.00 | 0.00 | 0.00 | 75 | 1007.1 |
| 20260506154425 | 88 | 221 | 0.9 | 5.2 | 0.00 | 0.00 | 0.00 | 76 | 1007.1 |
| 20260506152921 | 87 | 73 | 2.6 | 5.2 | 0.00 | 0.00 | 0.00 | 78 | 1007.1 |
| 20260506145936 | 84 | 51 | 0.9 | 4.3 | 0.00 | 0.00 | 0.00 | 82 | 1007.0 |
| 20260506144422 | 83 | 21 | 0.0 | 5.2 | 0.00 | 0.00 | 0.00 | 84 | 1007.1 |
| 20260506142925 | 82 | 90 | 1.7 | 3.5 | 0.00 | 0.00 | 0.00 | 85 | 1007.0 |
| 20260506135924 | 81 | 78 | 2.6 | 5.2 | 0.00 | 0.00 | 0.00 | 87 | 1006.9 |
| 20260506134416 | 81 | 81 | 2.6 | 6.1 | 0.00 | 0.00 | 0.00 | 87 | 1006.9 |
| 20260506131420 | 81 | 102 | 1.7 | 5.2 | 0.00 | 0.00 | 0.00 | 87 | 1006.7 |
| 20260506124421 | 81 | 87 | 1.7 | 4.3 | 0.00 | 0.00 | 0.00 | 87 | 1006.7 |
| 20260506121433 | 81 | 92 | 1.7 | 3.5 | 0.00 | 0.00 | 0.00 | 87 | 1006.4 |
| 20260506114436 | 80 | 97 | 0.9 | 5.2 | 0.00 | 0.00 | 0.00 | 87 | 1006.4 |
| 20260506112930 | 80 | 92 | 1.7 | 3.5 | 0.00 | 0.00 | 0.00 | 87 | 1006.4 |
| 20260506111419 | 80 | 75 | 1.7 | 5.2 | 0.00 | 0.00 | 0.00 | 87 | 1006.4 |
| 20260506104424 | 80 | 100 | 0.9 | 2.6 | 0.00 | 0.00 | 0.00 | 87 | 1006.2 |
| 20260506101425 | 80 | 68 | 2.6 | 7.0 | 0.00 | 0.00 | 0.00 | 86 | 1006.0 |
| 20260506094432 | 81 | 83 | 3.5 | 7.0 | 0.00 | 0.00 | 0.00 | 86 | 1006.1 |
| 20260506092013 | 81 | 94 | 1.7 | 7.0 | 0.00 | 0.00 | 0.00 | 86 | 1006.0 |
| 20260506085924 | 80 | 102 | 2.6 | 7.0 | 0.00 | 0.00 | 0.00 | 86 | 1006.1 |
| 20260506084420 | 80 | 91 | 2.6 | 5.2 | 0.00 | 0.00 | 0.00 | 86 | 1006.2 |
| 20260506081432 | 80 | 75 | 1.7 | 3.5 | 0.00 | 0.00 | 0.00 | 86 | 1006.2 |
| 20260506072920 | 80 | 89 | 2.6 | 7.0 | 0.00 | 0.00 | 0.00 | 86 | 1006.3 |
| 20260506071414 | 80 | 95 | 2.6 | 7.0 | 0.00 | 0.00 | 0.00 | 86 | 1006.5 |
| 20260506061428 | 80 | 79 | 0.9 | 6.1 | 0.00 | 0.00 | 0.00 | 87 | 1007.5 |
| 20260506042929 | 80 | 67 | 3.5 | 10.4 | 0.00 | 0.00 | 0.00 | 85 | 1007.4 |
| 20260506035932 | 80 | 85 | 6.1 | 11.3 | 0.00 | 0.00 | 0.00 | 84 | 1006.5 |
| 20260506032939 | 81 | 89 | 4.3 | 8.7 | 0.00 | 0.00 | 0.00 | 83 | 1006.7 |
| 20260506031430 | 81 | 80 | 6.1 | 10.4 | 0.00 | 0.00 | 0.00 | 82 | 1006.6 |
| 20260506025929 | 81 | 94 | 3.5 | 10.4 | 0.00 | 0.00 | 0.00 | 81 | 1006.5 |
| 20260506022933 | 81 | 91 | 5.2 | 11.3 | 0.00 | 0.00 | 0.00 | 80 | 1005.6 |
| 20260506021429 | 82 | 110 | 5.2 | 11.3 | 0.00 | 0.00 | 0.00 | 79 | 1005.4 |
| 20260506015927 | 82 | 108 | 5.2 | 13.0 | 0.00 | 0.00 | 0.00 | 79 | 1005.2 |
| 20260506012937 | 83 | 52 | 6.1 | 10.4 | 0.00 | 0.00 | 0.00 | 77 | 1004.8 |
| 20260506005928 | 84 | 54 | 7.8 | 12.2 | 0.00 | 0.00 | 0.00 | 75 | 1004.4 |
| 20260506002936 | 86 | 93 | 3.5 | 13.9 | 0.00 | 0.00 | 0.00 | 71 | 1003.8 |
| 20260505235925 | 88 | 94 | 6.1 | 14.8 | 0.00 | 0.00 | 0.00 | 68 | 1003.7 |
| 20260505232938 | 90 | 80 | 4.3 | 10.4 | 0.00 | 0.00 | 0.00 | 66 | 1003.5 |